sensor_id;sensor_type;location;lat;lon;timestamp;P1;durP1;ratioP1;P2;durP2;ratioP2
70312;SDS011;57723;51.698;5.344;2024-03-25T00:00:30;3.38;;;1.00;;
70312;SDS011;57723;51.698;5.344;2024-03-25T00:02:55;4.53;;;0.90;;
70312;SDS011;57723;51.698;5.344;2024-03-25T00:05:27;2.30;;;0.80;;
70312;SDS011;57723;51.698;5.344;2024-03-25T00:07:58;3.17;;;0.70;;
70312;SDS011;57723;51.698;5.344;2024-03-25T00:10:27;3.05;;;0.70;;
70312;SDS011;57723;51.698;5.344;2024-03-25T00:12:53;5.18;;;0.85;;
70312;SDS011;57723;51.698;5.344;2024-03-25T00:15:21;3.47;;;0.70;;
70312;SDS011;57723;51.698;5.344;2024-03-25T00:17:49;4.13;;;0.88;;
70312;SDS011;57723;51.698;5.344;2024-03-25T00:20:15;3.53;;;0.90;;
70312;SDS011;57723;51.698;5.344;2024-03-25T00:22:40;2.60;;;0.90;;
70312;SDS011;57723;51.698;5.344;2024-03-25T00:25:06;10.60;;;0.98;;
70312;SDS011;57723;51.698;5.344;2024-03-25T00:27:34;3.23;;;0.80;;
70312;SDS011;57723;51.698;5.344;2024-03-25T00:29:59;4.20;;;0.82;;
70312;SDS011;57723;51.698;5.344;2024-03-25T00:32:25;2.70;;;0.60;;
70312;SDS011;57723;51.698;5.344;2024-03-25T00:34:50;5.25;;;0.82;;
70312;SDS011;57723;51.698;5.344;2024-03-25T00:37:16;2.07;;;0.70;;
70312;SDS011;57723;51.698;5.344;2024-03-25T00:39:44;4.82;;;0.73;;
70312;SDS011;57723;51.698;5.344;2024-03-25T00:42:09;3.07;;;0.70;;
70312;SDS011;57723;51.698;5.344;2024-03-25T00:44:35;2.97;;;0.80;;
70312;SDS011;57723;51.698;5.344;2024-03-25T00:47:04;2.50;;;0.70;;
70312;SDS011;57723;51.698;5.344;2024-03-25T00:49:29;1.95;;;0.80;;
70312;SDS011;57723;51.698;5.344;2024-03-25T00:51:55;2.67;;;0.97;;
70312;SDS011;57723;51.698;5.344;2024-03-25T00:54:26;4.88;;;0.63;;
70312;SDS011;57723;51.698;5.344;2024-03-25T00:56:51;3.63;;;0.83;;
70312;SDS011;57723;51.698;5.344;2024-03-25T00:59:17;3.17;;;0.70;;
70312;SDS011;57723;51.698;5.344;2024-03-25T01:01:44;4.55;;;0.70;;
70312;SDS011;57723;51.698;5.344;2024-03-25T01:06:55;3.85;;;0.75;;
70312;SDS011;57723;51.698;5.344;2024-03-25T01:09:24;3.40;;;0.75;;
70312;SDS011;57723;51.698;5.344;2024-03-25T01:11:50;3.28;;;0.90;;
70312;SDS011;57723;51.698;5.344;2024-03-25T01:14:16;2.87;;;0.70;;
70312;SDS011;57723;51.698;5.344;2024-03-25T01:16:44;4.18;;;0.80;;
70312;SDS011;57723;51.698;5.344;2024-03-25T01:19:09;3.77;;;0.70;;
70312;SDS011;57723;51.698;5.344;2024-03-25T01:21:35;1.73;;;0.70;;
70312;SDS011;57723;51.698;5.344;2024-03-25T01:24:00;2.53;;;0.77;;
70312;SDS011;57723;51.698;5.344;2024-03-25T01:26:26;3.97;;;0.93;;
70312;SDS011;57723;51.698;5.344;2024-03-25T01:28:55;4.82;;;1.08;;
70312;SDS011;57723;51.698;5.344;2024-03-25T01:31:20;5.32;;;0.90;;
70312;SDS011;57723;51.698;5.344;2024-03-25T01:33:46;2.53;;;0.63;;
70312;SDS011;57723;51.698;5.344;2024-03-25T01:36:11;1.83;;;0.80;;
70312;SDS011;57723;51.698;5.344;2024-03-25T01:38:46;2.72;;;0.90;;
70312;SDS011;57723;51.698;5.344;2024-03-25T01:41:12;3.47;;;0.77;;
70312;SDS011;57723;51.698;5.344;2024-03-25T01:43:38;2.90;;;0.80;;
70312;SDS011;57723;51.698;5.344;2024-03-25T01:46:06;2.55;;;0.65;;
70312;SDS011;57723;51.698;5.344;2024-03-25T01:48:32;4.50;;;1.08;;
70312;SDS011;57723;51.698;5.344;2024-03-25T01:50:57;2.92;;;0.85;;
70312;SDS011;57723;51.698;5.344;2024-03-25T01:53:23;3.63;;;0.83;;
70312;SDS011;57723;51.698;5.344;2024-03-25T01:55:49;3.25;;;0.98;;
70312;SDS011;57723;51.698;5.344;2024-03-25T01:58:16;5.88;;;1.10;;
70312;SDS011;57723;51.698;5.344;2024-03-25T02:00:41;3.67;;;0.70;;
70312;SDS011;57723;51.698;5.344;2024-03-25T02:03:08;3.78;;;0.90;;
70312;SDS011;57723;51.698;5.344;2024-03-25T02:05:34;3.90;;;0.70;;
70312;SDS011;57723;51.698;5.344;2024-03-25T02:07:59;2.88;;;0.75;;
70312;SDS011;57723;51.698;5.344;2024-03-25T02:10:25;2.63;;;0.90;;
70312;SDS011;57723;51.698;5.344;2024-03-25T02:12:50;4.13;;;0.80;;
70312;SDS011;57723;51.698;5.344;2024-03-25T02:15:16;2.78;;;0.68;;
70312;SDS011;57723;51.698;5.344;2024-03-25T02:17:42;2.90;;;0.68;;
70312;SDS011;57723;51.698;5.344;2024-03-25T02:20:08;3.80;;;0.90;;
70312;SDS011;57723;51.698;5.344;2024-03-25T02:22:37;3.42;;;1.00;;
70312;SDS011;57723;51.698;5.344;2024-03-25T02:25:06;5.00;;;1.00;;
70312;SDS011;57723;51.698;5.344;2024-03-25T02:27:32;5.15;;;0.85;;
70312;SDS011;57723;51.698;5.344;2024-03-25T02:30:02;3.28;;;0.70;;
70312;SDS011;57723;51.698;5.344;2024-03-25T02:32:27;4.57;;;0.95;;
70312;SDS011;57723;51.698;5.344;2024-03-25T02:34:55;3.72;;;0.90;;
70312;SDS011;57723;51.698;5.344;2024-03-25T02:37:21;3.20;;;0.98;;
70312;SDS011;57723;51.698;5.344;2024-03-25T02:39:57;3.63;;;0.90;;
70312;SDS011;57723;51.698;5.344;2024-03-25T02:42:26;2.85;;;0.70;;
70312;SDS011;57723;51.698;5.344;2024-03-25T02:44:53;4.65;;;0.80;;
70312;SDS011;57723;51.698;5.344;2024-03-25T02:47:20;4.30;;;0.60;;
70312;SDS011;57723;51.698;5.344;2024-03-25T02:49:48;2.42;;;0.70;;
70312;SDS011;57723;51.698;5.344;2024-03-25T02:52:14;14.68;;;1.15;;
70312;SDS011;57723;51.698;5.344;2024-03-25T02:54:40;3.75;;;0.70;;
70312;SDS011;57723;51.698;5.344;2024-03-25T02:57:05;5.43;;;0.77;;
70312;SDS011;57723;51.698;5.344;2024-03-25T02:59:31;1.77;;;0.73;;
70312;SDS011;57723;51.698;5.344;2024-03-25T03:01:56;4.03;;;0.70;;
70312;SDS011;57723;51.698;5.344;2024-03-25T03:04:22;2.92;;;0.77;;
70312;SDS011;57723;51.698;5.344;2024-03-25T03:06:48;3.30;;;0.90;;
70312;SDS011;57723;51.698;5.344;2024-03-25T03:09:13;3.40;;;0.73;;
70312;SDS011;57723;51.698;5.344;2024-03-25T03:11:39;3.07;;;0.90;;
70312;SDS011;57723;51.698;5.344;2024-03-25T03:14:04;3.88;;;0.80;;
70312;SDS011;57723;51.698;5.344;2024-03-25T03:16:30;2.23;;;0.70;;
70312;SDS011;57723;51.698;5.344;2024-03-25T03:18:55;2.27;;;0.83;;
70312;SDS011;57723;51.698;5.344;2024-03-25T03:21:28;5.50;;;0.88;;
70312;SDS011;57723;51.698;5.344;2024-03-25T03:23:58;3.85;;;1.00;;
70312;SDS011;57723;51.698;5.344;2024-03-25T03:26:26;3.38;;;0.95;;
70312;SDS011;57723;51.698;5.344;2024-03-25T03:28:54;1.67;;;0.57;;
70312;SDS011;57723;51.698;5.344;2024-03-25T03:31:20;6.60;;;0.87;;
70312;SDS011;57723;51.698;5.344;2024-03-25T03:33:48;3.65;;;0.80;;
70312;SDS011;57723;51.698;5.344;2024-03-25T03:36:18;4.25;;;0.70;;
70312;SDS011;57723;51.698;5.344;2024-03-25T03:38:43;3.83;;;0.88;;
70312;SDS011;57723;51.698;5.344;2024-03-25T03:41:10;2.38;;;0.60;;
70312;SDS011;57723;51.698;5.344;2024-03-25T03:43:39;4.67;;;0.90;;
70312;SDS011;57723;51.698;5.344;2024-03-25T03:46:04;2.58;;;0.60;;
70312;SDS011;57723;51.698;5.344;2024-03-25T03:48:30;2.10;;;0.70;;
70312;SDS011;57723;51.698;5.344;2024-03-25T03:50:56;4.63;;;0.80;;
70312;SDS011;57723;51.698;5.344;2024-03-25T03:53:27;4.80;;;0.75;;
70312;SDS011;57723;51.698;5.344;2024-03-25T03:55:56;3.03;;;0.65;;
70312;SDS011;57723;51.698;5.344;2024-03-25T03:58:25;4.82;;;0.88;;
70312;SDS011;57723;51.698;5.344;2024-03-25T04:00:51;2.97;;;0.70;;
70312;SDS011;57723;51.698;5.344;2024-03-25T04:03:17;2.53;;;0.70;;
70312;SDS011;57723;51.698;5.344;2024-03-25T04:05:51;2.92;;;1.00;;
70312;SDS011;57723;51.698;5.344;2024-03-25T04:08:22;3.40;;;0.57;;
70312;SDS011;57723;51.698;5.344;2024-03-25T04:10:49;4.85;;;0.80;;
70312;SDS011;57723;51.698;5.344;2024-03-25T04:13:17;2.27;;;0.57;;
70312;SDS011;57723;51.698;5.344;2024-03-25T04:15:43;5.75;;;0.60;;
70312;SDS011;57723;51.698;5.344;2024-03-25T04:18:08;4.23;;;0.70;;
70312;SDS011;57723;51.698;5.344;2024-03-25T04:20:38;5.53;;;1.00;;
70312;SDS011;57723;51.698;5.344;2024-03-25T04:23:03;2.97;;;0.63;;
70312;SDS011;57723;51.698;5.344;2024-03-25T04:25:29;2.23;;;0.67;;
70312;SDS011;57723;51.698;5.344;2024-03-25T04:27:54;1.63;;;0.50;;
70312;SDS011;57723;51.698;5.344;2024-03-25T04:30:20;2.22;;;0.70;;
70312;SDS011;57723;51.698;5.344;2024-03-25T04:32:45;1.60;;;0.60;;
70312;SDS011;57723;51.698;5.344;2024-03-25T04:35:16;2.45;;;0.68;;
70312;SDS011;57723;51.698;5.344;2024-03-25T04:37:44;3.58;;;1.05;;
70312;SDS011;57723;51.698;5.344;2024-03-25T04:40:10;2.40;;;0.70;;
70312;SDS011;57723;51.698;5.344;2024-03-25T04:42:35;6.82;;;0.85;;
70312;SDS011;57723;51.698;5.344;2024-03-25T04:45:01;3.80;;;0.87;;
70312;SDS011;57723;51.698;5.344;2024-03-25T04:47:27;2.28;;;0.65;;
70312;SDS011;57723;51.698;5.344;2024-03-25T04:49:54;4.47;;;0.65;;
70312;SDS011;57723;51.698;5.344;2024-03-25T04:52:23;3.17;;;0.70;;
70312;SDS011;57723;51.698;5.344;2024-03-25T04:54:50;3.67;;;0.70;;
70312;SDS011;57723;51.698;5.344;2024-03-25T04:57:16;2.45;;;0.80;;
70312;SDS011;57723;51.698;5.344;2024-03-25T04:59:44;3.60;;;0.63;;
70312;SDS011;57723;51.698;5.344;2024-03-25T05:02:09;3.15;;;0.70;;
70312;SDS011;57723;51.698;5.344;2024-03-25T05:04:35;3.08;;;0.80;;
70312;SDS011;57723;51.698;5.344;2024-03-25T05:07:01;3.40;;;1.10;;
70312;SDS011;57723;51.698;5.344;2024-03-25T05:09:26;3.92;;;0.80;;
70312;SDS011;57723;51.698;5.344;2024-03-25T05:11:51;2.40;;;0.80;;
70312;SDS011;57723;51.698;5.344;2024-03-25T05:14:17;3.00;;;0.63;;
70312;SDS011;57723;51.698;5.344;2024-03-25T05:16:42;3.63;;;0.77;;
70312;SDS011;57723;51.698;5.344;2024-03-25T05:19:11;5.88;;;0.90;;
70312;SDS011;57723;51.698;5.344;2024-03-25T05:21:40;4.10;;;0.90;;
70312;SDS011;57723;51.698;5.344;2024-03-25T05:24:06;5.90;;;0.80;;
70312;SDS011;57723;51.698;5.344;2024-03-25T05:26:32;5.32;;;0.80;;
70312;SDS011;57723;51.698;5.344;2024-03-25T05:28:58;4.03;;;0.80;;
70312;SDS011;57723;51.698;5.344;2024-03-25T05:31:24;4.97;;;0.80;;
70312;SDS011;57723;51.698;5.344;2024-03-25T05:33:50;1.77;;;0.70;;
70312;SDS011;57723;51.698;5.344;2024-03-25T05:36:19;2.40;;;0.63;;
70312;SDS011;57723;51.698;5.344;2024-03-25T05:38:45;4.55;;;0.75;;
70312;SDS011;57723;51.698;5.344;2024-03-25T05:41:10;3.60;;;0.70;;
70312;SDS011;57723;51.698;5.344;2024-03-25T05:43:36;2.80;;;0.80;;
70312;SDS011;57723;51.698;5.344;2024-03-25T05:46:08;3.03;;;1.15;;
70312;SDS011;57723;51.698;5.344;2024-03-25T05:48:33;3.28;;;0.82;;
70312;SDS011;57723;51.698;5.344;2024-03-25T05:53:25;2.83;;;0.80;;
70312;SDS011;57723;51.698;5.344;2024-03-25T05:55:51;2.97;;;0.90;;
70312;SDS011;57723;51.698;5.344;2024-03-25T05:58:19;4.28;;;0.80;;
70312;SDS011;57723;51.698;5.344;2024-03-25T06:00:49;3.60;;;0.85;;
70312;SDS011;57723;51.698;5.344;2024-03-25T06:03:14;3.70;;;1.03;;
70312;SDS011;57723;51.698;5.344;2024-03-25T06:05:46;4.45;;;0.93;;
70312;SDS011;57723;51.698;5.344;2024-03-25T06:08:12;3.53;;;0.90;;
70312;SDS011;57723;51.698;5.344;2024-03-25T06:10:49;6.07;;;1.05;;
70312;SDS011;57723;51.698;5.344;2024-03-25T06:13:16;3.72;;;1.20;;
70312;SDS011;57723;51.698;5.344;2024-03-25T06:15:41;5.57;;;1.30;;
70312;SDS011;57723;51.698;5.344;2024-03-25T06:18:10;6.77;;;1.87;;
70312;SDS011;57723;51.698;5.344;2024-03-25T06:20:36;5.03;;;2.20;;
70312;SDS011;57723;51.698;5.344;2024-03-25T06:23:04;5.18;;;0.85;;
70312;SDS011;57723;51.698;5.344;2024-03-25T06:25:30;1.80;;;0.60;;
70312;SDS011;57723;51.698;5.344;2024-03-25T06:27:55;2.78;;;0.82;;
70312;SDS011;57723;51.698;5.344;2024-03-25T06:30:21;5.03;;;1.00;;
70312;SDS011;57723;51.698;5.344;2024-03-25T06:33:06;2.70;;;0.93;;
70312;SDS011;57723;51.698;5.344;2024-03-25T06:35:50;5.30;;;1.27;;
70312;SDS011;57723;51.698;5.344;2024-03-25T06:38:17;6.60;;;1.00;;
70312;SDS011;57723;51.698;5.344;2024-03-25T06:40:44;4.47;;;1.60;;
70312;SDS011;57723;51.698;5.344;2024-03-25T06:43:14;9.48;;;1.58;;
70312;SDS011;57723;51.698;5.344;2024-03-25T06:45:42;3.50;;;1.13;;
70312;SDS011;57723;51.698;5.344;2024-03-25T06:48:08;4.75;;;1.25;;
70312;SDS011;57723;51.698;5.344;2024-03-25T06:50:37;3.70;;;1.27;;
70312;SDS011;57723;51.698;5.344;2024-03-25T06:53:02;3.47;;;1.27;;
70312;SDS011;57723;51.698;5.344;2024-03-25T06:55:28;4.47;;;1.70;;
70312;SDS011;57723;51.698;5.344;2024-03-25T06:57:53;5.53;;;1.80;;
70312;SDS011;57723;51.698;5.344;2024-03-25T07:00:19;3.72;;;1.40;;
70312;SDS011;57723;51.698;5.344;2024-03-25T07:02:45;5.97;;;1.48;;
70312;SDS011;57723;51.698;5.344;2024-03-25T07:05:11;5.43;;;1.60;;
70312;SDS011;57723;51.698;5.344;2024-03-25T07:07:36;7.00;;;1.60;;
70312;SDS011;57723;51.698;5.344;2024-03-25T07:10:02;6.22;;;1.73;;
70312;SDS011;57723;51.698;5.344;2024-03-25T07:12:27;7.53;;;1.63;;
70312;SDS011;57723;51.698;5.344;2024-03-25T07:14:53;7.70;;;1.95;;
70312;SDS011;57723;51.698;5.344;2024-03-25T07:17:19;6.23;;;1.60;;
70312;SDS011;57723;51.698;5.344;2024-03-25T07:19:46;5.40;;;1.80;;
70312;SDS011;57723;51.698;5.344;2024-03-25T07:22:14;7.20;;;1.80;;
70312;SDS011;57723;51.698;5.344;2024-03-25T07:24:43;6.70;;;1.85;;
70312;SDS011;57723;51.698;5.344;2024-03-25T07:27:08;5.73;;;1.70;;
70312;SDS011;57723;51.698;5.344;2024-03-25T07:29:37;5.65;;;1.70;;
70312;SDS011;57723;51.698;5.344;2024-03-25T07:32:06;8.20;;;1.92;;
70312;SDS011;57723;51.698;5.344;2024-03-25T07:34:36;6.57;;;1.67;;
70312;SDS011;57723;51.698;5.344;2024-03-25T07:37:05;5.43;;;1.77;;
70312;SDS011;57723;51.698;5.344;2024-03-25T07:39:31;5.25;;;1.50;;
70312;SDS011;57723;51.698;5.344;2024-03-25T07:42:00;6.30;;;1.50;;
70312;SDS011;57723;51.698;5.344;2024-03-25T07:44:25;5.75;;;1.58;;
70312;SDS011;57723;51.698;5.344;2024-03-25T07:47:00;6.80;;;1.55;;
70312;SDS011;57723;51.698;5.344;2024-03-25T07:49:27;5.95;;;1.33;;
70312;SDS011;57723;51.698;5.344;2024-03-25T07:51:55;9.57;;;1.90;;
70312;SDS011;57723;51.698;5.344;2024-03-25T07:54:21;5.82;;;1.40;;
70312;SDS011;57723;51.698;5.344;2024-03-25T07:56:49;4.83;;;1.47;;
70312;SDS011;57723;51.698;5.344;2024-03-25T07:59:15;5.53;;;1.50;;
70312;SDS011;57723;51.698;5.344;2024-03-25T08:01:43;3.63;;;1.20;;
70312;SDS011;57723;51.698;5.344;2024-03-25T08:04:09;5.93;;;1.63;;
70312;SDS011;57723;51.698;5.344;2024-03-25T08:06:38;4.90;;;1.35;;
70312;SDS011;57723;51.698;5.344;2024-03-25T08:09:07;4.20;;;1.30;;
70312;SDS011;57723;51.698;5.344;2024-03-25T08:11:34;4.90;;;1.70;;
70312;SDS011;57723;51.698;5.344;2024-03-25T08:14:00;7.57;;;1.80;;
70312;SDS011;57723;51.698;5.344;2024-03-25T08:16:26;7.93;;;1.60;;
70312;SDS011;57723;51.698;5.344;2024-03-25T08:18:51;4.43;;;1.30;;
70312;SDS011;57723;51.698;5.344;2024-03-25T08:21:19;2.85;;;1.27;;
70312;SDS011;57723;51.698;5.344;2024-03-25T08:23:48;4.70;;;1.58;;
70312;SDS011;57723;51.698;5.344;2024-03-25T08:26:16;6.75;;;1.45;;
70312;SDS011;57723;51.698;5.344;2024-03-25T08:28:45;4.73;;;1.27;;
70312;SDS011;57723;51.698;5.344;2024-03-25T08:31:10;6.38;;;1.55;;
70312;SDS011;57723;51.698;5.344;2024-03-25T08:33:36;4.47;;;1.27;;
70312;SDS011;57723;51.698;5.344;2024-03-25T08:36:01;4.00;;;1.23;;
70312;SDS011;57723;51.698;5.344;2024-03-25T08:38:28;4.28;;;1.30;;
70312;SDS011;57723;51.698;5.344;2024-03-25T08:40:53;6.00;;;1.50;;
70312;SDS011;57723;51.698;5.344;2024-03-25T08:43:22;4.33;;;1.40;;
70312;SDS011;57723;51.698;5.344;2024-03-25T08:45:47;4.13;;;1.33;;
70312;SDS011;57723;51.698;5.344;2024-03-25T08:48:13;5.73;;;1.50;;
70312;SDS011;57723;51.698;5.344;2024-03-25T08:50:48;5.88;;;1.73;;
70312;SDS011;57723;51.698;5.344;2024-03-25T08:53:13;4.27;;;1.40;;
70312;SDS011;57723;51.698;5.344;2024-03-25T08:55:43;3.47;;;1.17;;
70312;SDS011;57723;51.698;5.344;2024-03-25T08:58:11;5.43;;;1.50;;
70312;SDS011;57723;51.698;5.344;2024-03-25T09:00:36;3.45;;;1.38;;
70312;SDS011;57723;51.698;5.344;2024-03-25T09:03:02;5.73;;;1.33;;
70312;SDS011;57723;51.698;5.344;2024-03-25T09:05:29;4.40;;;1.10;;
70312;SDS011;57723;51.698;5.344;2024-03-25T09:08:02;4.43;;;1.50;;
70312;SDS011;57723;51.698;5.344;2024-03-25T09:10:27;4.38;;;1.10;;
70312;SDS011;57723;51.698;5.344;2024-03-25T09:13:12;3.90;;;1.20;;
70312;SDS011;57723;51.698;5.344;2024-03-25T09:15:38;6.57;;;1.50;;
70312;SDS011;57723;51.698;5.344;2024-03-25T09:18:03;3.17;;;1.20;;
70312;SDS011;57723;51.698;5.344;2024-03-25T09:20:32;4.90;;;1.20;;
70312;SDS011;57723;51.698;5.344;2024-03-25T09:23:00;4.28;;;1.45;;
70312;SDS011;57723;51.698;5.344;2024-03-25T09:25:40;3.45;;;1.30;;
70312;SDS011;57723;51.698;5.344;2024-03-25T09:28:08;3.67;;;1.23;;
70312;SDS011;57723;51.698;5.344;2024-03-25T09:30:33;2.50;;;1.20;;
70312;SDS011;57723;51.698;5.344;2024-03-25T09:32:59;3.50;;;1.40;;
70312;SDS011;57723;51.698;5.344;2024-03-25T09:35:25;3.10;;;1.25;;
70312;SDS011;57723;51.698;5.344;2024-03-25T09:37:51;4.13;;;1.30;;
70312;SDS011;57723;51.698;5.344;2024-03-25T09:40:16;3.57;;;1.30;;
70312;SDS011;57723;51.698;5.344;2024-03-25T09:42:47;3.10;;;1.27;;
70312;SDS011;57723;51.698;5.344;2024-03-25T09:45:12;3.83;;;1.45;;
70312;SDS011;57723;51.698;5.344;2024-03-25T09:47:38;3.58;;;1.63;;
70312;SDS011;57723;51.698;5.344;2024-03-25T09:50:09;4.97;;;1.30;;
70312;SDS011;57723;51.698;5.344;2024-03-25T09:52:35;5.03;;;1.42;;
70312;SDS011;57723;51.698;5.344;2024-03-25T09:55:01;4.43;;;1.40;;
70312;SDS011;57723;51.698;5.344;2024-03-25T09:57:26;3.23;;;1.20;;
70312;SDS011;57723;51.698;5.344;2024-03-25T09:59:52;3.83;;;1.30;;
70312;SDS011;57723;51.698;5.344;2024-03-25T10:02:23;3.38;;;1.23;;
70312;SDS011;57723;51.698;5.344;2024-03-25T10:04:51;4.28;;;1.20;;
70312;SDS011;57723;51.698;5.344;2024-03-25T10:10:08;5.25;;;1.50;;
70312;SDS011;57723;51.698;5.344;2024-03-25T10:12:37;3.08;;;1.55;;
70312;SDS011;57723;51.698;5.344;2024-03-25T10:15:03;3.42;;;1.33;;
70312;SDS011;57723;51.698;5.344;2024-03-25T10:17:38;4.30;;;1.58;;
70312;SDS011;57723;51.698;5.344;2024-03-25T10:20:03;3.63;;;1.33;;
70312;SDS011;57723;51.698;5.344;2024-03-25T10:22:31;3.60;;;1.30;;
70312;SDS011;57723;51.698;5.344;2024-03-25T10:25:05;3.70;;;1.40;;
70312;SDS011;57723;51.698;5.344;2024-03-25T10:27:33;2.65;;;1.10;;
70312;SDS011;57723;51.698;5.344;2024-03-25T10:29:58;2.80;;;1.40;;
70312;SDS011;57723;51.698;5.344;2024-03-25T10:32:24;3.22;;;1.17;;
70312;SDS011;57723;51.698;5.344;2024-03-25T10:34:50;3.60;;;1.50;;
70312;SDS011;57723;51.698;5.344;2024-03-25T10:37:17;14.47;;;1.90;;
70312;SDS011;57723;51.698;5.344;2024-03-25T10:39:44;3.22;;;1.30;;
70312;SDS011;57723;51.698;5.344;2024-03-25T10:42:13;2.80;;;1.20;;
70312;SDS011;57723;51.698;5.344;2024-03-25T10:44:39;3.22;;;1.25;;
70312;SDS011;57723;51.698;5.344;2024-03-25T10:47:05;2.90;;;1.30;;
70312;SDS011;57723;51.698;5.344;2024-03-25T10:52:06;3.78;;;1.45;;
70312;SDS011;57723;51.698;5.344;2024-03-25T10:54:32;3.38;;;1.38;;
70312;SDS011;57723;51.698;5.344;2024-03-25T10:57:02;3.35;;;1.40;;
70312;SDS011;57723;51.698;5.344;2024-03-25T10:59:29;4.17;;;1.60;;
70312;SDS011;57723;51.698;5.344;2024-03-25T11:01:55;3.30;;;1.20;;
70312;SDS011;57723;51.698;5.344;2024-03-25T11:04:23;2.72;;;1.30;;
70312;SDS011;57723;51.698;5.344;2024-03-25T11:06:50;3.03;;;1.20;;
70312;SDS011;57723;51.698;5.344;2024-03-25T11:09:24;3.27;;;1.47;;
70312;SDS011;57723;51.698;5.344;2024-03-25T11:11:53;3.75;;;1.30;;
70312;SDS011;57723;51.698;5.344;2024-03-25T11:14:24;3.57;;;1.43;;
70312;SDS011;57723;51.698;5.344;2024-03-25T11:16:51;2.92;;;1.23;;
70312;SDS011;57723;51.698;5.344;2024-03-25T11:19:17;3.80;;;1.40;;
70312;SDS011;57723;51.698;5.344;2024-03-25T11:21:42;2.33;;;1.20;;
70312;SDS011;57723;51.698;5.344;2024-03-25T11:24:08;3.05;;;1.27;;
70312;SDS011;57723;51.698;5.344;2024-03-25T11:26:34;3.50;;;1.23;;
70312;SDS011;57723;51.698;5.344;2024-03-25T11:29:02;3.28;;;1.40;;
70312;SDS011;57723;51.698;5.344;2024-03-25T11:31:27;3.97;;;1.27;;
70312;SDS011;57723;51.698;5.344;2024-03-25T11:33:53;3.72;;;1.33;;
70312;SDS011;57723;51.698;5.344;2024-03-25T11:36:19;3.63;;;1.43;;
70312;SDS011;57723;51.698;5.344;2024-03-25T11:38:45;2.53;;;1.17;;
70312;SDS011;57723;51.698;5.344;2024-03-25T11:41:11;2.07;;;1.03;;
70312;SDS011;57723;51.698;5.344;2024-03-25T11:43:37;2.85;;;1.30;;
70312;SDS011;57723;51.698;5.344;2024-03-25T11:46:02;3.63;;;1.40;;
70312;SDS011;57723;51.698;5.344;2024-03-25T11:48:31;4.40;;;1.37;;
70312;SDS011;57723;51.698;5.344;2024-03-25T11:50:57;2.00;;;1.20;;
70312;SDS011;57723;51.698;5.344;2024-03-25T11:53:23;1.63;;;1.00;;
70312;SDS011;57723;51.698;5.344;2024-03-25T11:55:51;3.88;;;1.38;;
70312;SDS011;57723;51.698;5.344;2024-03-25T11:58:19;3.08;;;1.13;;
70312;SDS011;57723;51.698;5.344;2024-03-25T12:00:45;2.70;;;1.30;;
70312;SDS011;57723;51.698;5.344;2024-03-25T12:03:14;2.85;;;1.20;;
70312;SDS011;57723;51.698;5.344;2024-03-25T12:05:40;1.85;;;1.00;;
70312;SDS011;57723;51.698;5.344;2024-03-25T12:08:12;2.95;;;1.10;;
70312;SDS011;57723;51.698;5.344;2024-03-25T12:10:38;3.85;;;1.30;;
70312;SDS011;57723;51.698;5.344;2024-03-25T12:13:22;1.80;;;1.05;;
70312;SDS011;57723;51.698;5.344;2024-03-25T12:15:50;3.30;;;1.27;;
70312;SDS011;57723;51.698;5.344;2024-03-25T12:18:15;2.45;;;1.08;;
70312;SDS011;57723;51.698;5.344;2024-03-25T12:20:41;3.53;;;1.30;;
70312;SDS011;57723;51.698;5.344;2024-03-25T12:23:06;2.07;;;1.00;;
70312;SDS011;57723;51.698;5.344;2024-03-25T12:25:32;1.98;;;0.90;;
70312;SDS011;57723;51.698;5.344;2024-03-25T12:27:58;2.63;;;1.23;;
70312;SDS011;57723;51.698;5.344;2024-03-25T12:30:23;3.30;;;1.10;;
70312;SDS011;57723;51.698;5.344;2024-03-25T12:32:50;3.22;;;1.30;;
70312;SDS011;57723;51.698;5.344;2024-03-25T12:35:16;2.37;;;1.20;;
70312;SDS011;57723;51.698;5.344;2024-03-25T12:37:45;2.50;;;1.08;;
70312;SDS011;57723;51.698;5.344;2024-03-25T12:40:11;2.92;;;1.10;;
70312;SDS011;57723;51.698;5.344;2024-03-25T12:42:37;3.65;;;1.00;;
70312;SDS011;57723;51.698;5.344;2024-03-25T12:45:06;2.55;;;1.15;;
70312;SDS011;57723;51.698;5.344;2024-03-25T12:47:32;2.97;;;1.03;;
70312;SDS011;57723;51.698;5.344;2024-03-25T12:49:58;2.08;;;1.00;;
70312;SDS011;57723;51.698;5.344;2024-03-25T12:52:24;1.90;;;0.90;;
70312;SDS011;57723;51.698;5.344;2024-03-25T12:54:49;1.95;;;1.08;;
70312;SDS011;57723;51.698;5.344;2024-03-25T12:57:18;1.80;;;1.13;;
70312;SDS011;57723;51.698;5.344;2024-03-25T12:59:44;3.03;;;1.20;;
70312;SDS011;57723;51.698;5.344;2024-03-25T13:02:12;2.08;;;1.10;;
70312;SDS011;57723;51.698;5.344;2024-03-25T13:04:38;2.03;;;1.00;;
70312;SDS011;57723;51.698;5.344;2024-03-25T13:07:07;1.48;;;0.90;;
70312;SDS011;57723;51.698;5.344;2024-03-25T13:09:33;1.90;;;1.00;;
70312;SDS011;57723;51.698;5.344;2024-03-25T13:11:58;2.33;;;1.00;;
70312;SDS011;57723;51.698;5.344;2024-03-25T13:14:24;3.10;;;1.27;;
70312;SDS011;57723;51.698;5.344;2024-03-25T13:16:50;2.30;;;1.03;;
70312;SDS011;57723;51.698;5.344;2024-03-25T13:19:18;1.77;;;0.90;;
70312;SDS011;57723;51.698;5.344;2024-03-25T13:21:44;1.90;;;1.00;;
70312;SDS011;57723;51.698;5.344;2024-03-25T13:24:10;2.78;;;1.20;;
70312;SDS011;57723;51.698;5.344;2024-03-25T13:26:38;1.57;;;0.90;;
70312;SDS011;57723;51.698;5.344;2024-03-25T13:29:04;1.60;;;0.80;;
70312;SDS011;57723;51.698;5.344;2024-03-25T13:31:32;2.10;;;1.10;;
70312;SDS011;57723;51.698;5.344;2024-03-25T13:34:00;2.45;;;0.98;;
70312;SDS011;57723;51.698;5.344;2024-03-25T13:36:29;2.27;;;0.90;;
70312;SDS011;57723;51.698;5.344;2024-03-25T13:38:57;2.15;;;1.00;;
70312;SDS011;57723;51.698;5.344;2024-03-25T13:41:23;2.42;;;0.95;;
70312;SDS011;57723;51.698;5.344;2024-03-25T13:43:49;1.73;;;0.80;;
70312;SDS011;57723;51.698;5.344;2024-03-25T13:46:15;2.60;;;1.10;;
70312;SDS011;57723;51.698;5.344;2024-03-25T13:48:46;2.83;;;1.10;;
70312;SDS011;57723;51.698;5.344;2024-03-25T13:51:18;1.92;;;0.80;;
70312;SDS011;57723;51.698;5.344;2024-03-25T13:53:46;2.67;;;1.10;;
70312;SDS011;57723;51.698;5.344;2024-03-25T13:56:18;1.97;;;0.97;;
70312;SDS011;57723;51.698;5.344;2024-03-25T13:58:47;2.33;;;1.10;;
70312;SDS011;57723;51.698;5.344;2024-03-25T14:01:15;3.00;;;1.20;;
70312;SDS011;57723;51.698;5.344;2024-03-25T14:03:44;2.95;;;1.10;;
70312;SDS011;57723;51.698;5.344;2024-03-25T14:06:11;1.70;;;0.93;;
70312;SDS011;57723;51.698;5.344;2024-03-25T14:08:36;1.47;;;0.80;;
70312;SDS011;57723;51.698;5.344;2024-03-25T14:11:09;3.67;;;1.10;;
70312;SDS011;57723;51.698;5.344;2024-03-25T14:13:35;1.88;;;0.80;;
70312;SDS011;57723;51.698;5.344;2024-03-25T14:16:01;2.10;;;0.93;;
70312;SDS011;57723;51.698;5.344;2024-03-25T14:18:26;2.05;;;1.00;;
70312;SDS011;57723;51.698;5.344;2024-03-25T14:20:55;1.50;;;0.93;;
70312;SDS011;57723;51.698;5.344;2024-03-25T14:23:22;2.28;;;0.93;;
70312;SDS011;57723;51.698;5.344;2024-03-25T14:25:48;1.30;;;0.80;;
70312;SDS011;57723;51.698;5.344;2024-03-25T14:28:16;2.53;;;0.80;;
70312;SDS011;57723;51.698;5.344;2024-03-25T14:30:45;1.50;;;0.82;;
70312;SDS011;57723;51.698;5.344;2024-03-25T14:33:13;1.92;;;0.90;;
70312;SDS011;57723;51.698;5.344;2024-03-25T14:35:38;1.73;;;0.80;;
70312;SDS011;57723;51.698;5.344;2024-03-25T14:38:07;3.10;;;1.00;;
70312;SDS011;57723;51.698;5.344;2024-03-25T14:40:42;2.55;;;1.10;;
70312;SDS011;57723;51.698;5.344;2024-03-25T14:43:10;3.85;;;0.80;;
70312;SDS011;57723;51.698;5.344;2024-03-25T14:45:35;2.20;;;0.90;;
70312;SDS011;57723;51.698;5.344;2024-03-25T14:48:01;1.87;;;1.00;;
70312;SDS011;57723;51.698;5.344;2024-03-25T14:50:30;1.92;;;0.90;;
70312;SDS011;57723;51.698;5.344;2024-03-25T14:52:58;2.13;;;0.90;;
70312;SDS011;57723;51.698;5.344;2024-03-25T14:55:26;1.95;;;1.00;;
70312;SDS011;57723;51.698;5.344;2024-03-25T14:57:54;1.93;;;1.00;;